sensor_id;sensor_type;location;lat;lon;timestamp;temperature;humidity
20831;DHT22;10576;53.556;9.868;2022-10-26T00:00:25;10.40;99.90
20831;DHT22;10576;53.556;9.868;2022-10-26T00:02:53;10.40;99.90
20831;DHT22;10576;53.556;9.868;2022-10-26T00:05:20;10.40;99.90
20831;DHT22;10576;53.556;9.868;2022-10-26T00:07:46;10.40;99.90
20831;DHT22;10576;53.556;9.868;2022-10-26T00:10:12;10.40;99.90
20831;DHT22;10576;53.556;9.868;2022-10-26T00:12:38;10.40;99.90
20831;DHT22;10576;53.556;9.868;2022-10-26T00:15:04;10.40;99.90
20831;DHT22;10576;53.556;9.868;2022-10-26T00:17:30;10.40;99.90
20831;DHT22;10576;53.556;9.868;2022-10-26T00:19:56;10.30;99.90
20831;DHT22;10576;53.556;9.868;2022-10-26T00:22:22;10.20;99.90
20831;DHT22;10576;53.556;9.868;2022-10-26T00:24:48;10.20;99.90
20831;DHT22;10576;53.556;9.868;2022-10-26T00:27:14;10.10;99.90
20831;DHT22;10576;53.556;9.868;2022-10-26T00:29:39;10.00;99.90
20831;DHT22;10576;53.556;9.868;2022-10-26T00:32:05;10.00;99.90
20831;DHT22;10576;53.556;9.868;2022-10-26T00:34:31;10.00;99.90
20831;DHT22;10576;53.556;9.868;2022-10-26T00:36:57;10.00;99.90
20831;DHT22;10576;53.556;9.868;2022-10-26T00:39:23;9.90;99.90
20831;DHT22;10576;53.556;9.868;2022-10-26T00:41:48;9.90;99.90
20831;DHT22;10576;53.556;9.868;2022-10-26T00:47:13;9.80;99.90
20831;DHT22;10576;53.556;9.868;2022-10-26T00:49:41;9.80;99.90
20831;DHT22;10576;53.556;9.868;2022-10-26T00:52:08;9.70;99.90
20831;DHT22;10576;53.556;9.868;2022-10-26T00:54:34;9.70;99.90
20831;DHT22;10576;53.556;9.868;2022-10-26T00:57:00;9.70;99.90
20831;DHT22;10576;53.556;9.868;2022-10-26T00:59:25;9.70;99.90
20831;DHT22;10576;53.556;9.868;2022-10-26T01:01:52;9.70;99.90
20831;DHT22;10576;53.556;9.868;2022-10-26T01:04:18;9.70;99.90
20831;DHT22;10576;53.556;9.868;2022-10-26T01:06:44;9.70;99.90
20831;DHT22;10576;53.556;9.868;2022-10-26T01:09:11;9.60;99.90
20831;DHT22;10576;53.556;9.868;2022-10-26T01:11:37;9.50;99.90
20831;DHT22;10576;53.556;9.868;2022-10-26T01:14:06;9.50;99.90
20831;DHT22;10576;53.556;9.868;2022-10-26T01:22:00;9.40;99.90
20831;DHT22;10576;53.556;9.868;2022-10-26T01:27:40;9.40;99.90
20831;DHT22;10576;53.556;9.868;2022-10-26T01:30:35;9.40;99.90
20831;DHT22;10576;53.556;9.868;2022-10-26T01:33:28;9.40;99.90
20831;DHT22;10576;53.556;9.868;2022-10-26T01:36:25;9.40;99.90
20831;DHT22;10576;53.556;9.868;2022-10-26T01:38:59;9.30;99.90
20831;DHT22;10576;53.556;9.868;2022-10-26T01:41:35;9.20;99.90
20831;DHT22;10576;53.556;9.868;2022-10-26T01:44:09;9.30;99.90
20831;DHT22;10576;53.556;9.868;2022-10-26T01:46:41;9.30;99.90
20831;DHT22;10576;53.556;9.868;2022-10-26T01:49:12;9.30;99.90
20831;DHT22;10576;53.556;9.868;2022-10-26T01:51:42;9.20;99.90
20831;DHT22;10576;53.556;9.868;2022-10-26T01:54:08;9.20;99.90
20831;DHT22;10576;53.556;9.868;2022-10-26T01:56:37;9.20;99.90
20831;DHT22;10576;53.556;9.868;2022-10-26T01:59:25;9.20;99.90
20831;DHT22;10576;53.556;9.868;2022-10-26T02:05:31;9.20;99.90
20831;DHT22;10576;53.556;9.868;2022-10-26T02:08:30;9.20;99.90
20831;DHT22;10576;53.556;9.868;2022-10-26T02:16:25;9.00;99.90
20831;DHT22;10576;53.556;9.868;2022-10-26T02:22:08;9.00;99.90
20831;DHT22;10576;53.556;9.868;2022-10-26T02:24:39;8.90;99.90
20831;DHT22;10576;53.556;9.868;2022-10-26T02:27:07;9.00;99.90
20831;DHT22;10576;53.556;9.868;2022-10-26T02:29:35;9.00;99.90
20831;DHT22;10576;53.556;9.868;2022-10-26T02:32:02;9.00;99.90
20831;DHT22;10576;53.556;9.868;2022-10-26T02:34:29;9.00;99.90
20831;DHT22;10576;53.556;9.868;2022-10-26T02:36:58;9.00;99.90
20831;DHT22;10576;53.556;9.868;2022-10-26T02:39:27;9.00;99.90
20831;DHT22;10576;53.556;9.868;2022-10-26T02:41:59;9.10;99.90
20831;DHT22;10576;53.556;9.868;2022-10-26T02:44:25;9.00;99.90
20831;DHT22;10576;53.556;9.868;2022-10-26T02:46:52;9.00;99.90
20831;DHT22;10576;53.556;9.868;2022-10-26T02:49:20;9.00;99.90
20831;DHT22;10576;53.556;9.868;2022-10-26T02:51:48;8.90;99.90
20831;DHT22;10576;53.556;9.868;2022-10-26T02:54:52;9.00;99.90
20831;DHT22;10576;53.556;9.868;2022-10-26T02:57:19;8.90;99.90
20831;DHT22;10576;53.556;9.868;2022-10-26T02:59:48;8.90;99.90
20831;DHT22;10576;53.556;9.868;2022-10-26T03:02:16;8.90;99.90
20831;DHT22;10576;53.556;9.868;2022-10-26T03:04:42;8.90;99.90
20831;DHT22;10576;53.556;9.868;2022-10-26T03:07:08;8.80;99.90
20831;DHT22;10576;53.556;9.868;2022-10-26T03:09:34;8.90;99.90
20831;DHT22;10576;53.556;9.868;2022-10-26T03:11:59;8.80;99.90
20831;DHT22;10576;53.556;9.868;2022-10-26T03:14:25;8.80;99.90
20831;DHT22;10576;53.556;9.868;2022-10-26T03:16:51;8.70;99.90
20831;DHT22;10576;53.556;9.868;2022-10-26T03:19:16;8.70;99.90
20831;DHT22;10576;53.556;9.868;2022-10-26T03:21:42;8.70;99.90
20831;DHT22;10576;53.556;9.868;2022-10-26T03:24:10;8.70;99.90
20831;DHT22;10576;53.556;9.868;2022-10-26T03:26:49;8.60;99.90
20831;DHT22;10576;53.556;9.868;2022-10-26T03:29:14;8.60;99.90
20831;DHT22;10576;53.556;9.868;2022-10-26T03:31:40;8.60;99.90
20831;DHT22;10576;53.556;9.868;2022-10-26T03:34:05;7.70;99.90
20831;DHT22;10576;53.556;9.868;2022-10-26T03:36:31;8.60;99.90
20831;DHT22;10576;53.556;9.868;2022-10-26T03:38:57;8.70;99.90
20831;DHT22;10576;53.556;9.868;2022-10-26T03:41:23;8.70;99.90
20831;DHT22;10576;53.556;9.868;2022-10-26T03:43:49;8.60;99.90
20831;DHT22;10576;53.556;9.868;2022-10-26T03:46:14;8.50;99.90
20831;DHT22;10576;53.556;9.868;2022-10-26T03:48:40;8.50;99.90
20831;DHT22;10576;53.556;9.868;2022-10-26T03:51:06;8.50;99.90
20831;DHT22;10576;53.556;9.868;2022-10-26T03:53:31;8.50;99.90
20831;DHT22;10576;53.556;9.868;2022-10-26T03:55:57;7.60;99.90
20831;DHT22;10576;53.556;9.868;2022-10-26T03:58:22;8.50;99.90
20831;DHT22;10576;53.556;9.868;2022-10-26T04:00:48;8.50;99.90
20831;DHT22;10576;53.556;9.868;2022-10-26T04:03:14;8.50;99.90
20831;DHT22;10576;53.556;9.868;2022-10-26T04:05:40;8.40;99.90
20831;DHT22;10576;53.556;9.868;2022-10-26T04:08:05;8.50;99.90
20831;DHT22;10576;53.556;9.868;2022-10-26T04:10:31;8.40;99.90
20831;DHT22;10576;53.556;9.868;2022-10-26T04:12:57;8.40;99.90
20831;DHT22;10576;53.556;9.868;2022-10-26T04:15:27;8.40;99.90
20831;DHT22;10576;53.556;9.868;2022-10-26T04:18:00;8.30;99.90
20831;DHT22;10576;53.556;9.868;2022-10-26T04:20:28;8.30;99.90
20831;DHT22;10576;53.556;9.868;2022-10-26T04:23:02;8.30;99.90
20831;DHT22;10576;53.556;9.868;2022-10-26T04:25:29;8.30;99.90
20831;DHT22;10576;53.556;9.868;2022-10-26T04:27:56;8.30;99.90
20831;DHT22;10576;53.556;9.868;2022-10-26T04:30:21;8.30;99.90
20831;DHT22;10576;53.556;9.868;2022-10-26T04:32:47;8.30;99.90
20831;DHT22;10576;53.556;9.868;2022-10-26T04:35:13;8.30;99.90
20831;DHT22;10576;53.556;9.868;2022-10-26T04:37:39;8.40;99.90
20831;DHT22;10576;53.556;9.868;2022-10-26T04:40:05;8.40;99.90
20831;DHT22;10576;53.556;9.868;2022-10-26T04:42:38;8.40;99.90
20831;DHT22;10576;53.556;9.868;2022-10-26T04:45:04;8.50;99.90
20831;DHT22;10576;53.556;9.868;2022-10-26T04:47:30;8.50;99.90
20831;DHT22;10576;53.556;9.868;2022-10-26T04:49:55;8.40;99.90
20831;DHT22;10576;53.556;9.868;2022-10-26T04:52:21;8.40;99.90
20831;DHT22;10576;53.556;9.868;2022-10-26T04:54:47;8.40;99.90
20831;DHT22;10576;53.556;9.868;2022-10-26T04:57:12;8.40;99.90
20831;DHT22;10576;53.556;9.868;2022-10-26T04:59:38;8.40;99.90
20831;DHT22;10576;53.556;9.868;2022-10-26T05:02:04;8.40;99.90
20831;DHT22;10576;53.556;9.868;2022-10-26T05:04:29;8.30;99.90
20831;DHT22;10576;53.556;9.868;2022-10-26T05:06:55;8.40;99.90
20831;DHT22;10576;53.556;9.868;2022-10-26T05:09:20;8.30;99.90
20831;DHT22;10576;53.556;9.868;2022-10-26T05:11:46;8.30;99.90
20831;DHT22;10576;53.556;9.868;2022-10-26T05:14:12;8.40;99.90
20831;DHT22;10576;53.556;9.868;2022-10-26T05:16:38;8.30;99.90
20831;DHT22;10576;53.556;9.868;2022-10-26T05:19:03;8.30;99.90
20831;DHT22;10576;53.556;9.868;2022-10-26T05:21:29;8.30;99.90
20831;DHT22;10576;53.556;9.868;2022-10-26T05:23:55;8.40;99.90
20831;DHT22;10576;53.556;9.868;2022-10-26T05:26:24;8.30;99.90
20831;DHT22;10576;53.556;9.868;2022-10-26T05:28:50;8.30;99.90
20831;DHT22;10576;53.556;9.868;2022-10-26T05:31:16;8.30;99.90
20831;DHT22;10576;53.556;9.868;2022-10-26T05:33:42;8.30;99.90
20831;DHT22;10576;53.556;9.868;2022-10-26T05:36:08;8.30;99.90
20831;DHT22;10576;53.556;9.868;2022-10-26T05:38:33;8.30;99.90
20831;DHT22;10576;53.556;9.868;2022-10-26T05:40:59;8.40;99.90
20831;DHT22;10576;53.556;9.868;2022-10-26T05:43:26;8.30;99.90
20831;DHT22;10576;53.556;9.868;2022-10-26T05:45:52;8.40;99.90
20831;DHT22;10576;53.556;9.868;2022-10-26T05:48:19;8.30;99.90
20831;DHT22;10576;53.556;9.868;2022-10-26T05:50:45;8.30;99.90
20831;DHT22;10576;53.556;9.868;2022-10-26T05:53:11;8.40;99.90
20831;DHT22;10576;53.556;9.868;2022-10-26T05:55:37;8.40;99.90
20831;DHT22;10576;53.556;9.868;2022-10-26T05:58:03;8.40;99.90
20831;DHT22;10576;53.556;9.868;2022-10-26T06:00:29;8.30;99.90
20831;DHT22;10576;53.556;9.868;2022-10-26T06:05:58;8.30;99.90
20831;DHT22;10576;53.556;9.868;2022-10-26T06:08:26;8.40;99.90
20831;DHT22;10576;53.556;9.868;2022-10-26T06:10:53;8.30;99.90
20831;DHT22;10576;53.556;9.868;2022-10-26T06:13:19;8.40;99.90
20831;DHT22;10576;53.556;9.868;2022-10-26T06:24:06;8.40;99.90
20831;DHT22;10576;53.556;9.868;2022-10-26T06:32:02;8.50;99.90
20831;DHT22;10576;53.556;9.868;2022-10-26T06:34:32;8.50;99.90
20831;DHT22;10576;53.556;9.868;2022-10-26T06:37:00;8.40;99.90
20831;DHT22;10576;53.556;9.868;2022-10-26T06:39:28;8.40;99.90
20831;DHT22;10576;53.556;9.868;2022-10-26T06:41:56;8.40;99.90
20831;DHT22;10576;53.556;9.868;2022-10-26T06:44:22;8.40;99.90
20831;DHT22;10576;53.556;9.868;2022-10-26T06:47:06;8.50;99.90
20831;DHT22;10576;53.556;9.868;2022-10-26T06:49:40;8.50;99.90
20831;DHT22;10576;53.556;9.868;2022-10-26T06:52:17;8.50;99.90
20831;DHT22;10576;53.556;9.868;2022-10-26T06:57:17;8.50;99.90
20831;DHT22;10576;53.556;9.868;2022-10-26T06:59:50;8.60;99.90
20831;DHT22;10576;53.556;9.868;2022-10-26T07:02:18;8.60;99.90
20831;DHT22;10576;53.556;9.868;2022-10-26T07:04:44;8.70;99.90
20831;DHT22;10576;53.556;9.868;2022-10-26T07:07:13;8.70;99.90
20831;DHT22;10576;53.556;9.868;2022-10-26T07:09:39;8.80;99.90
20831;DHT22;10576;53.556;9.868;2022-10-26T07:12:05;8.80;99.90
20831;DHT22;10576;53.556;9.868;2022-10-26T07:14:31;8.80;99.90
20831;DHT22;10576;53.556;9.868;2022-10-26T07:16:57;8.80;99.90
20831;DHT22;10576;53.556;9.868;2022-10-26T07:19:22;8.90;99.90
20831;DHT22;10576;53.556;9.868;2022-10-26T07:21:48;9.00;99.90
20831;DHT22;10576;53.556;9.868;2022-10-26T07:24:14;9.10;99.90
20831;DHT22;10576;53.556;9.868;2022-10-26T07:26:39;9.10;99.90
20831;DHT22;10576;53.556;9.868;2022-10-26T07:29:05;9.20;99.90
20831;DHT22;10576;53.556;9.868;2022-10-26T07:31:31;9.30;99.90
20831;DHT22;10576;53.556;9.868;2022-10-26T07:33:58;9.30;99.90
20831;DHT22;10576;53.556;9.868;2022-10-26T07:36:24;9.40;99.90
20831;DHT22;10576;53.556;9.868;2022-10-26T07:38:52;9.40;99.90
20831;DHT22;10576;53.556;9.868;2022-10-26T07:41:18;9.50;99.90
20831;DHT22;10576;53.556;9.868;2022-10-26T07:43:44;9.60;99.90
20831;DHT22;10576;53.556;9.868;2022-10-26T07:46:13;9.60;99.90
20831;DHT22;10576;53.556;9.868;2022-10-26T07:48:41;9.70;99.90
20831;DHT22;10576;53.556;9.868;2022-10-26T07:51:07;9.70;99.90
20831;DHT22;10576;53.556;9.868;2022-10-26T07:53:33;9.80;99.90
20831;DHT22;10576;53.556;9.868;2022-10-26T07:55:58;9.90;99.90
20831;DHT22;10576;53.556;9.868;2022-10-26T07:58:24;10.00;99.90
20831;DHT22;10576;53.556;9.868;2022-10-26T08:00:52;10.10;99.90
20831;DHT22;10576;53.556;9.868;2022-10-26T08:03:18;10.20;99.90
20831;DHT22;10576;53.556;9.868;2022-10-26T08:05:45;10.30;99.90
20831;DHT22;10576;53.556;9.868;2022-10-26T08:08:12;10.50;99.90
20831;DHT22;10576;53.556;9.868;2022-10-26T08:10:42;10.50;99.90
20831;DHT22;10576;53.556;9.868;2022-10-26T08:13:08;10.60;99.90
20831;DHT22;10576;53.556;9.868;2022-10-26T08:15:34;10.70;99.90
20831;DHT22;10576;53.556;9.868;2022-10-26T08:17:59;10.90;99.90
20831;DHT22;10576;53.556;9.868;2022-10-26T08:20:25;10.90;99.90
20831;DHT22;10576;53.556;9.868;2022-10-26T08:22:51;10.90;99.90
20831;DHT22;10576;53.556;9.868;2022-10-26T08:25:17;11.10;99.90
20831;DHT22;10576;53.556;9.868;2022-10-26T08:27:43;11.20;99.90
20831;DHT22;10576;53.556;9.868;2022-10-26T08:30:09;11.40;99.90
20831;DHT22;10576;53.556;9.868;2022-10-26T08:32:35;11.60;99.90
20831;DHT22;10576;53.556;9.868;2022-10-26T08:35:00;11.70;99.90
20831;DHT22;10576;53.556;9.868;2022-10-26T08:37:26;11.90;99.90
20831;DHT22;10576;53.556;9.868;2022-10-26T08:39:52;12.10;99.90
20831;DHT22;10576;53.556;9.868;2022-10-26T08:42:23;12.20;99.90
20831;DHT22;10576;53.556;9.868;2022-10-26T08:44:56;12.30;99.90
20831;DHT22;10576;53.556;9.868;2022-10-26T08:47:29;12.40;99.90
20831;DHT22;10576;53.556;9.868;2022-10-26T08:50:10;12.50;99.90
20831;DHT22;10576;53.556;9.868;2022-10-26T08:52:43;12.60;99.90
20831;DHT22;10576;53.556;9.868;2022-10-26T08:55:19;12.60;99.90
20831;DHT22;10576;53.556;9.868;2022-10-26T08:57:46;12.70;99.90
20831;DHT22;10576;53.556;9.868;2022-10-26T09:00:21;12.60;99.90
20831;DHT22;10576;53.556;9.868;2022-10-26T09:02:51;12.70;99.90
20831;DHT22;10576;53.556;9.868;2022-10-26T09:05:27;12.70;99.90
20831;DHT22;10576;53.556;9.868;2022-10-26T09:08:29;12.80;99.90
20831;DHT22;10576;53.556;9.868;2022-10-26T09:11:22;12.80;99.90
20831;DHT22;10576;53.556;9.868;2022-10-26T09:16:53;12.90;99.90
20831;DHT22;10576;53.556;9.868;2022-10-26T09:24:56;12.80;99.90
20831;DHT22;10576;53.556;9.868;2022-10-26T09:27:36;12.80;99.90
20831;DHT22;10576;53.556;9.868;2022-10-26T09:30:14;12.90;99.90
20831;DHT22;10576;53.556;9.868;2022-10-26T09:32:46;12.90;99.90
20831;DHT22;10576;53.556;9.868;2022-10-26T09:35:24;12.80;99.90
20831;DHT22;10576;53.556;9.868;2022-10-26T09:38:08;12.80;99.90
20831;DHT22;10576;53.556;9.868;2022-10-26T09:45:56;13.00;99.90
20831;DHT22;10576;53.556;9.868;2022-10-26T09:50:53;13.10;99.90
20831;DHT22;10576;53.556;9.868;2022-10-26T09:53:21;13.10;99.90
20831;DHT22;10576;53.556;9.868;2022-10-26T09:55:48;13.10;99.90
20831;DHT22;10576;53.556;9.868;2022-10-26T09:58:19;13.20;99.90
20831;DHT22;10576;53.556;9.868;2022-10-26T10:00:49;13.20;99.90
20831;DHT22;10576;53.556;9.868;2022-10-26T10:03:23;13.30;99.90
20831;DHT22;10576;53.556;9.868;2022-10-26T10:05:49;13.30;99.90
20831;DHT22;10576;53.556;9.868;2022-10-26T10:11:12;13.40;99.90
20831;DHT22;10576;53.556;9.868;2022-10-26T10:13:40;13.40;99.90
20831;DHT22;10576;53.556;9.868;2022-10-26T10:16:21;13.40;99.90
20831;DHT22;10576;53.556;9.868;2022-10-26T10:18:57;13.50;99.90
20831;DHT22;10576;53.556;9.868;2022-10-26T10:21:43;13.50;99.90
20831;DHT22;10576;53.556;9.868;2022-10-26T10:24:24;13.40;99.90
20831;DHT22;10576;53.556;9.868;2022-10-26T10:29:33;13.50;99.90
20831;DHT22;10576;53.556;9.868;2022-10-26T10:32:04;13.50;99.90
20831;DHT22;10576;53.556;9.868;2022-10-26T10:34:30;13.60;99.90
20831;DHT22;10576;53.556;9.868;2022-10-26T10:36:56;13.60;99.90
20831;DHT22;10576;53.556;9.868;2022-10-26T10:39:36;13.60;99.90
20831;DHT22;10576;53.556;9.868;2022-10-26T10:42:24;14.90;99.90
20831;DHT22;10576;53.556;9.868;2022-10-26T10:44:54;13.80;99.90
20831;DHT22;10576;53.556;9.868;2022-10-26T10:47:27;13.90;99.90
20831;DHT22;10576;53.556;9.868;2022-10-26T10:50:00;14.00;99.90
20831;DHT22;10576;53.556;9.868;2022-10-26T10:52:34;14.10;99.90
20831;DHT22;10576;53.556;9.868;2022-10-26T10:57:48;14.30;99.90
20831;DHT22;10576;53.556;9.868;2022-10-26T11:00:16;14.40;99.90
20831;DHT22;10576;53.556;9.868;2022-10-26T11:05:45;14.60;99.90
20831;DHT22;10576;53.556;9.868;2022-10-26T11:08:18;14.60;99.90
20831;DHT22;10576;53.556;9.868;2022-10-26T11:11:02;14.70;99.90
20831;DHT22;10576;53.556;9.868;2022-10-26T11:13:51;14.70;99.90
20831;DHT22;10576;53.556;9.868;2022-10-26T11:16:39;14.80;99.90
20831;DHT22;10576;53.556;9.868;2022-10-26T11:21:44;14.80;99.90
20831;DHT22;10576;53.556;9.868;2022-10-26T11:24:33;14.90;99.90
20831;DHT22;10576;53.556;9.868;2022-10-26T11:27:24;14.90;99.90
20831;DHT22;10576;53.556;9.868;2022-10-26T11:30:06;15.00;99.90
20831;DHT22;10576;53.556;9.868;2022-10-26T11:32:44;15.10;99.90
20831;DHT22;10576;53.556;9.868;2022-10-26T11:35:23;15.10;99.90
20831;DHT22;10576;53.556;9.868;2022-10-26T11:38:01;15.30;99.90
20831;DHT22;10576;53.556;9.868;2022-10-26T11:45:30;15.60;99.90
20831;DHT22;10576;53.556;9.868;2022-10-26T11:48:23;15.70;99.90
20831;DHT22;10576;53.556;9.868;2022-10-26T11:50:54;15.80;99.90
20831;DHT22;10576;53.556;9.868;2022-10-26T11:53:35;15.80;99.90
20831;DHT22;10576;53.556;9.868;2022-10-26T11:56:03;15.90;99.90
20831;DHT22;10576;53.556;9.868;2022-10-26T11:58:30;15.90;99.90
20831;DHT22;10576;53.556;9.868;2022-10-26T12:01:07;15.90;99.90
20831;DHT22;10576;53.556;9.868;2022-10-26T12:03:37;15.90;99.90
20831;DHT22;10576;53.556;9.868;2022-10-26T12:06:04;15.90;99.90
20831;DHT22;10576;53.556;9.868;2022-10-26T12:08:35;16.00;99.90
20831;DHT22;10576;53.556;9.868;2022-10-26T12:11:21;16.10;99.90
20831;DHT22;10576;53.556;9.868;2022-10-26T12:13:56;16.20;99.90
20831;DHT22;10576;53.556;9.868;2022-10-26T12:19:33;16.30;99.90
20831;DHT22;10576;53.556;9.868;2022-10-26T12:22:03;16.30;99.90
20831;DHT22;10576;53.556;9.868;2022-10-26T12:24:30;16.30;99.90
20831;DHT22;10576;53.556;9.868;2022-10-26T12:27:04;16.40;99.90
20831;DHT22;10576;53.556;9.868;2022-10-26T12:29:45;16.40;99.90
20831;DHT22;10576;53.556;9.868;2022-10-26T12:35:00;16.50;99.90
20831;DHT22;10576;53.556;9.868;2022-10-26T12:37:31;16.50;99.90
20831;DHT22;10576;53.556;9.868;2022-10-26T12:42:56;16.60;99.90
20831;DHT22;10576;53.556;9.868;2022-10-26T12:45:23;16.60;99.90
20831;DHT22;10576;53.556;9.868;2022-10-26T12:52:55;16.70;99.90
20831;DHT22;10576;53.556;9.868;2022-10-26T12:55:45;16.90;99.90
20831;DHT22;10576;53.556;9.868;2022-10-26T13:09:07;17.00;99.90
20831;DHT22;10576;53.556;9.868;2022-10-26T13:11:35;17.00;99.90
20831;DHT22;10576;53.556;9.868;2022-10-26T13:14:15;16.50;99.90
20831;DHT22;10576;53.556;9.868;2022-10-26T13:16:45;17.00;99.90
20831;DHT22;10576;53.556;9.868;2022-10-26T13:21:49;17.00;99.90
20831;DHT22;10576;53.556;9.868;2022-10-26T13:24:15;17.10;99.90
20831;DHT22;10576;53.556;9.868;2022-10-26T13:32:52;17.10;99.90
20831;DHT22;10576;53.556;9.868;2022-10-26T13:35:20;17.10;99.90
20831;DHT22;10576;53.556;9.868;2022-10-26T13:37:50;17.10;99.90
20831;DHT22;10576;53.556;9.868;2022-10-26T13:40:24;17.20;99.90
20831;DHT22;10576;53.556;9.868;2022-10-26T13:42:58;17.30;99.90
20831;DHT22;10576;53.556;9.868;2022-10-26T13:45:31;17.20;99.90
20831;DHT22;10576;53.556;9.868;2022-10-26T13:48:05;17.20;99.90
20831;DHT22;10576;53.556;9.868;2022-10-26T13:50:45;17.20;99.90
20831;DHT22;10576;53.556;9.868;2022-10-26T13:53:37;17.20;99.90
20831;DHT22;10576;53.556;9.868;2022-10-26T13:59:01;17.20;99.90
20831;DHT22;10576;53.556;9.868;2022-10-26T14:01:28;17.20;99.90
20831;DHT22;10576;53.556;9.868;2022-10-26T14:03:54;17.20;99.90
20831;DHT22;10576;53.556;9.868;2022-10-26T14:06:28;17.20;99.90
20831;DHT22;10576;53.556;9.868;2022-10-26T14:08:59;17.10;99.90
20831;DHT22;10576;53.556;9.868;2022-10-26T14:14:16;17.10;99.90
20831;DHT22;10576;53.556;9.868;2022-10-26T14:16:44;17.00;99.90
20831;DHT22;10576;53.556;9.868;2022-10-26T14:19:25;17.00;99.90
20831;DHT22;10576;53.556;9.868;2022-10-26T14:21:52;17.00;99.90
20831;DHT22;10576;53.556;9.868;2022-10-26T14:24:23;17.00;99.90
20831;DHT22;10576;53.556;9.868;2022-10-26T14:26:51;17.10;99.90
20831;DHT22;10576;53.556;9.868;2022-10-26T14:29:22;17.10;99.90
20831;DHT22;10576;53.556;9.868;2022-10-26T14:31:48;17.10;99.90
20831;DHT22;10576;53.556;9.868;2022-10-26T14:34:15;17.10;99.90
20831;DHT22;10576;53.556;9.868;2022-10-26T14:36:51;17.10;99.90
20831;DHT22;10576;53.556;9.868;2022-10-26T14:41:50;17.10;99.90
20831;DHT22;10576;53.556;9.868;2022-10-26T14:44:20;17.20;99.90
20831;DHT22;10576;53.556;9.868;2022-10-26T14:46:47;17.10;99.90
20831;DHT22;10576;53.556;9.868;2022-10-26T14:49:30;17.00;99.90
20831;DHT22;10576;53.556;9.868;2022-10-26T14:52:04;17.00;99.90
20831;DHT22;10576;53.556;9.868;2022-10-26T14:54:30;17.00;99.90
20831;DHT22;10576;53.556;9.868;2022-10-26T14:56:58;17.00;99.90
20831;DHT22;10576;53.556;9.868;2022-10-26T14:59:29;16.80;99.90
20831;DHT22;10576;53.556;9.868;2022-10-26T15:04:39;16.70;99.90
20831;DHT22;10576;53.556;9.868;2022-10-26T15:09:43;16.60;99.90
20831;DHT22;10576;53.556;9.868;2022-10-26T15:12:24;16.60;99.90
20831;DHT22;10576;53.556;9.868;2022-10-26T15:14:50;16.50;99.90
20831;DHT22;10576;53.556;9.868;2022-10-26T15:17:26;16.40;99.90
20831;DHT22;10576;53.556;9.868;2022-10-26T15:19:56;16.30;99.90
20831;DHT22;10576;53.556;9.868;2022-10-26T15:22:26;16.30;99.90
20831;DHT22;10576;53.556;9.868;2022-10-26T15:24:55;16.20;99.90
20831;DHT22;10576;53.556;9.868;2022-10-26T15:27:31;16.20;99.90
20831;DHT22;10576;53.556;9.868;2022-10-26T15:30:26;16.10;99.90
20831;DHT22;10576;53.556;9.868;2022-10-26T15:36:42;15.80;99.90
20831;DHT22;10576;53.556;9.868;2022-10-26T15:40:04;15.80;99.90
20831;DHT22;10576;53.556;9.868;2022-10-26T15:42:51;16.30;99.90
20831;DHT22;10576;53.556;9.868;2022-10-26T15:45:50;15.60;99.90
20831;DHT22;10576;53.556;9.868;2022-10-26T15:49:03;15.60;99.90
20831;DHT22;10576;53.556;9.868;2022-10-26T15:52:04;15.50;99.90
20831;DHT22;10576;53.556;9.868;2022-10-26T16:04:21;15.20;99.90
20831;DHT22;10576;53.556;9.868;2022-10-26T16:06:54;15.10;99.90
20831;DHT22;10576;53.556;9.868;2022-10-26T16:21:25;14.90;99.90
20831;DHT22;10576;53.556;9.868;2022-10-26T16:26:52;14.90;99.90
20831;DHT22;10576;53.556;9.868;2022-10-26T16:29:47;15.00;99.90
20831;DHT22;10576;53.556;9.868;2022-10-26T16:33:02;14.90;99.90
20831;DHT22;10576;53.556;9.868;2022-10-26T16:39:12;14.80;99.90
20831;DHT22;10576;53.556;9.868;2022-10-26T16:41:59;14.90;99.90
20831;DHT22;10576;53.556;9.868;2022-10-26T16:44:38;14.90;99.90
20831;DHT22;10576;53.556;9.868;2022-10-26T16:47:11;14.90;99.90
20831;DHT22;10576;53.556;9.868;2022-10-26T16:49:50;14.80;99.90
20831;DHT22;10576;53.556;9.868;2022-10-26T16:52:56;14.80;99.90
20831;DHT22;10576;53.556;9.868;2022-10-26T16:55:36;14.80;99.90
20831;DHT22;10576;53.556;9.868;2022-10-26T17:03:34;14.60;99.90
20831;DHT22;10576;53.556;9.868;2022-10-26T17:06:03;14.40;99.90
20831;DHT22;10576;53.556;9.868;2022-10-26T17:08:30;14.50;99.90
20831;DHT22;10576;53.556;9.868;2022-10-26T17:11:05;14.40;99.90
20831;DHT22;10576;53.556;9.868;2022-10-26T17:13:32;14.40;99.90
20831;DHT22;10576;53.556;9.868;2022-10-26T17:16:10;14.40;99.90
20831;DHT22;10576;53.556;9.868;2022-10-26T17:18:37;14.40;99.90
20831;DHT22;10576;53.556;9.868;2022-10-26T17:21:03;14.30;99.90
20831;DHT22;10576;53.556;9.868;2022-10-26T17:23:28;14.30;99.90
20831;DHT22;10576;53.556;9.868;2022-10-26T17:25:54;14.20;99.90
20831;DHT22;10576;53.556;9.868;2022-10-26T17:28:24;14.20;99.90
20831;DHT22;10576;53.556;9.868;2022-10-26T17:30:50;14.20;99.90
20831;DHT22;10576;53.556;9.868;2022-10-26T17:33:15;14.00;99.90
20831;DHT22;10576;53.556;9.868;2022-10-26T17:35:41;14.40;99.90
20831;DHT22;10576;53.556;9.868;2022-10-26T17:38:07;14.10;99.90
20831;DHT22;10576;53.556;9.868;2022-10-26T17:40:32;14.10;99.90
20831;DHT22;10576;53.556;9.868;2022-10-26T17:42:58;14.00;99.90
20831;DHT22;10576;53.556;9.868;2022-10-26T17:45:24;14.00;99.90
20831;DHT22;10576;53.556;9.868;2022-10-26T17:47:50;14.00;99.90
20831;DHT22;10576;53.556;9.868;2022-10-26T17:50:16;14.00;99.90
20831;DHT22;10576;53.556;9.868;2022-10-26T17:52:41;14.10;99.90
20831;DHT22;10576;53.556;9.868;2022-10-26T17:55:07;14.10;99.90
20831;DHT22;10576;53.556;9.868;2022-10-26T17:57:33;14.10;99.90
20831;DHT22;10576;53.556;9.868;2022-10-26T17:59:58;14.10;99.90
20831;DHT22;10576;53.556;9.868;2022-10-26T18:02:24;14.20;99.90
20831;DHT22;10576;53.556;9.868;2022-10-26T18:04:49;14.20;99.90
20831;DHT22;10576;53.556;9.868;2022-10-26T18:07:15;14.20;99.90
20831;DHT22;10576;53.556;9.868;2022-10-26T18:09:41;14.20;99.90
20831;DHT22;10576;53.556;9.868;2022-10-26T18:12:06;14.20;99.90
20831;DHT22;10576;53.556;9.868;2022-10-26T18:14:32;14.20;99.90
20831;DHT22;10576;53.556;9.868;2022-10-26T18:16:58;14.20;99.90
20831;DHT22;10576;53.556;9.868;2022-10-26T18:19:23;14.20;99.90
20831;DHT22;10576;53.556;9.868;2022-10-26T18:21:49;14.20;99.90
20831;DHT22;10576;53.556;9.868;2022-10-26T18:24:14;14.20;99.90
20831;DHT22;10576;53.556;9.868;2022-10-26T18:26:40;14.20;99.90
20831;DHT22;10576;53.556;9.868;2022-10-26T18:29:05;14.20;99.90
20831;DHT22;10576;53.556;9.868;2022-10-26T18:31:32;14.20;99.90
20831;DHT22;10576;53.556;9.868;2022-10-26T18:34:00;14.20;99.90
20831;DHT22;10576;53.556;9.868;2022-10-26T18:36:27;14.20;99.90
20831;DHT22;10576;53.556;9.868;2022-10-26T18:38:53;14.20;99.90
20831;DHT22;10576;53.556;9.868;2022-10-26T18:41:20;14.20;99.90